Time;durP1;ratioP1;P1;durP2;ratioP2;P2;SDS_P1;SDS_P2;PMS_P1;PMS_P2;Temp;Humidity;BMP_temperature;BMP_pressure;BME280_temperature;BME280_humidity;BME280_pressure;Samples;Min_cycle;Max_cycle;Signal;HPM_P1;HPM_P2
2021/01/18 00:01:21;;;;;;;38.15;13.98;;;2.40;89.60;;;;;;5072670;28;20025;-65
2021/01/18 00:03:47;;;;;;;36.83;14.30;;;2.40;89.60;;;;;;5049103;28;20031;-65
2021/01/18 00:06:17;;;;;;;38.05;15.88;;;2.40;89.50;;;;;;5063257;28;20028;-65
2021/01/18 00:08:45;;;;;;;49.83;17.45;;;2.40;89.60;;;;;;5035062;28;20548;-65
2021/01/18 00:11:12;;;;;;;44.00;15.18;;;2.40;89.60;;;;;;5052593;28;20032;-65
2021/01/18 00:13:38;;;;;;;54.95;19.13;;;2.40;89.60;;;;;;5052981;28;20025;-65
2021/01/18 00:16:04;;;;;;;51.55;17.75;;;2.40;89.70;;;;;;5034445;28;20028;-65
2021/01/18 00:18:32;;;;;;;43.42;16.08;;;2.30;89.70;;;;;;5053256;28;20021;-65
2021/01/18 00:20:58;;;;;;;49.70;17.30;;;2.40;89.80;;;;;;5052963;28;20033;-66
2021/01/18 00:23:24;;;;;;;46.30;18.90;;;2.30;89.90;;;;;;5054302;28;20546;-66
2021/01/18 00:25:50;;;;;;;42.13;15.85;;;2.30;90.00;;;;;;5055807;28;20028;-66
2021/01/18 00:28:16;;;;;;;39.05;15.80;;;2.30;90.00;;;;;;5047507;28;20485;-66
2021/01/18 00:30:41;;;;;;;46.67;16.20;;;2.30;90.00;;;;;;5057880;28;20107;-66
2021/01/18 00:33:07;;;;;;;41.65;15.32;;;2.40;90.10;;;;;;5063792;28;20475;-66
2021/01/18 00:35:33;;;;;;;47.63;17.85;;;2.40;90.00;;;;;;5065416;28;20048;-66
2021/01/18 00:37:58;;;;;;;42.97;16.15;;;2.40;90.00;;;;;;5044834;28;20112;-66
2021/01/18 00:40:25;;;;;;;45.60;14.70;;;2.40;90.00;;;;;;5054954;28;20156;-66
2021/01/18 00:42:51;;;;;;;50.22;18.42;;;2.40;89.80;;;;;;5064659;28;20017;-66
2021/01/18 00:45:19;;;;;;;35.60;14.65;;;2.50;90.00;;;;;;5053479;28;20033;-66
2021/01/18 00:47:53;;;;;;;41.00;16.48;;;2.50;89.80;;;;;;5048539;28;20037;-66
2021/01/18 00:50:24;;;;;;;41.25;16.27;;;2.60;89.80;;;;;;5053713;28;20372;-66
2021/01/18 00:52:52;;;;;;;33.13;14.38;;;2.60;89.90;;;;;;5056061;28;20055;-66
2021/01/18 00:55:19;;;;;;;39.95;15.13;;;2.60;89.90;;;;;;5051353;28;20497;-67
2021/01/18 00:57:46;;;;;;;37.88;15.68;;;2.50;89.80;;;;;;5058634;28;20484;-66
2021/01/18 01:00:15;;;;;;;34.65;14.00;;;2.60;89.90;;;;;;5052828;28;20063;-66
2021/01/18 01:02:43;;;;;;;31.65;12.68;;;2.60;89.80;;;;;;5053272;28;20370;-66
2021/01/18 01:05:11;;;;;;;34.20;14.32;;;2.60;89.80;;;;;;5049041;28;20024;-66
2021/01/18 01:07:41;;;;;;;24.80;12.30;;;2.60;89.80;;;;;;5053899;28;20029;-66
2021/01/18 01:10:09;;;;;;;32.22;14.80;;;2.70;89.80;;;;;;5042797;28;20025;-66
2021/01/18 01:12:35;;;;;;;35.92;15.10;;;2.70;89.70;;;;;;5056168;28;20087;-66
2021/01/18 01:15:01;;;;;;;39.58;14.88;;;2.70;89.60;;;;;;5051206;28;20024;-66
2021/01/18 01:17:27;;;;;;;37.25;15.10;;;2.70;89.70;;;;;;5069741;28;20021;-66
2021/01/18 01:19:52;;;;;;;33.95;12.95;;;2.70;89.60;;;;;;5056800;28;20020;-66
2021/01/18 01:22:18;;;;;;;38.10;14.40;;;2.70;89.60;;;;;;5051723;28;20029;-66
2021/01/18 01:24:44;;;;;;;42.50;15.10;;;2.70;89.60;;;;;;5066496;28;20082;-66
2021/01/18 01:27:10;;;;;;;37.45;14.88;;;2.70;89.60;;;;;;5066197;28;20103;-66
2021/01/18 01:29:35;;;;;;;36.63;16.20;;;2.70;89.50;;;;;;5060029;28;20032;-66
2021/01/18 01:32:01;;;;;;;42.30;16.65;;;2.70;89.60;;;;;;5054287;28;20029;-66
2021/01/18 01:34:27;;;;;;;39.80;16.30;;;2.70;89.60;;;;;;5038346;28;20029;-66
2021/01/18 01:36:52;;;;;;;36.47;15.68;;;2.70;89.60;;;;;;5065795;28;20031;-66
2021/01/18 01:39:18;;;;;;;35.20;14.32;;;2.70;89.70;;;;;;5063685;28;20017;-66
2021/01/18 01:41:43;;;;;;;33.70;13.15;;;2.70;89.70;;;;;;5063768;28;20041;-66
2021/01/18 01:44:09;;;;;;;31.45;12.85;;;2.70;89.70;;;;;;5060730;28;20028;-66
2021/01/18 01:46:35;;;;;;;30.90;13.20;;;2.70;89.70;;;;;;5061032;28;20064;-66
2021/01/18 01:49:01;;;;;;;28.70;13.55;;;2.70;89.70;;;;;;5066115;28;20095;-66
2021/01/18 01:51:29;;;;;;;34.95;13.68;;;2.80;89.70;;;;;;5064399;28;20108;-66
2021/01/18 01:53:56;;;;;;;30.30;13.00;;;2.80;89.60;;;;;;5066918;28;20491;-66
2021/01/18 01:56:22;;;;;;;33.60;13.35;;;2.80;89.50;;;;;;5068165;28;20032;-66
2021/01/18 01:58:52;;;;;;;36.60;14.20;;;2.80;89.40;;;;;;5062319;28;20016;-66
2021/01/18 02:01:19;;;;;;;25.52;12.57;;;2.70;89.50;;;;;;5061721;28;20064;-66
2021/01/18 02:03:45;;;;;;;33.95;14.07;;;2.70;89.40;;;;;;5069274;28;20021;-66
2021/01/18 02:06:11;;;;;;;38.58;15.57;;;2.80;89.50;;;;;;5062070;28;20045;-66
2021/01/18 02:08:38;;;;;;;34.08;14.57;;;2.70;89.50;;;;;;5044725;28;20056;-66
2021/01/18 02:11:05;;;;;;;41.33;17.58;;;2.80;89.50;;;;;;5051691;28;20021;-66
2021/01/18 02:13:53;;;;;;;43.30;16.92;;;2.80;89.60;;;;;;5063309;28;20481;-66
2021/01/18 02:16:37;;;;;;;38.28;15.18;;;2.70;89.60;;;;;;5066401;28;20028;-66
2021/01/18 02:19:27;;;;;;;34.90;14.70;;;2.70;89.60;;;;;;5056596;28;20021;-66
2021/01/18 02:22:32;;;;;;;41.30;15.07;;;2.70;89.60;;;;;;5043907;28;20095;-66
2021/01/18 02:25:28;;;;;;;37.95;14.95;;;2.70;89.60;;;;;;5054019;28;20024;-66
2021/01/18 02:28:11;;;;;;;37.78;16.73;;;2.70;89.60;;;;;;5075407;28;20061;-66
2021/01/18 02:31:14;;;;;;;46.70;17.55;;;2.70;89.70;;;;;;5032654;28;20072;-67
2021/01/18 02:33:55;;;;;;;;;;;2.70;89.90;;;;;;5046740;28;20109;-67
2021/01/18 02:36:42;;;;;;;31.73;14.57;;;2.70;89.70;;;;;;5032500;28;19909;-66
2021/01/18 02:39:28;;;;;;;31.65;15.13;;;2.70;89.60;;;;;;5053731;28;20021;-66
2021/01/18 02:42:06;;;;;;;34.45;16.40;;;2.70;89.70;;;;;;5049989;28;20056;-66
2021/01/18 02:44:36;;;;;;;41.50;19.02;;;2.70;89.70;;;;;;5055518;28;20033;-66
2021/01/18 02:47:03;;;;;;;40.22;16.77;;;2.70;89.70;;;;;;5046041;28;20456;-66
2021/01/18 02:49:29;;;;;;;44.65;18.38;;;2.70;89.70;;;;;;5066588;28;20029;-66
2021/01/18 02:52:03;;;;;;;35.95;15.52;;;2.70;90.10;;;;;;5055294;28;20551;-66
2021/01/18 02:54:28;;;;;;;40.10;16.55;;;2.70;89.90;;;;;;5031190;28;20021;-66
2021/01/18 02:56:56;;;;;;;39.80;16.65;;;2.70;89.90;;;;;;5057602;28;20572;-65
2021/01/18 02:59:22;;;;;;;43.53;16.85;;;2.70;89.90;;;;;;5070344;28;20017;-72
2021/01/18 03:02:10;;;;;;;39.10;18.23;;;2.70;89.90;;;;;;5064281;28;20044;-66
2021/01/18 03:05:19;;;;;;;42.47;19.58;;;2.70;89.90;;;;;;5035640;28;20111;-66
2021/01/18 03:08:25;;;;;;;46.25;19.27;;;2.70;89.90;;;;;;5050862;28;20048;-65
2021/01/18 03:11:06;;;;;;;49.38;20.02;;;2.70;89.80;;;;;;5053069;28;20037;-66
2021/01/18 03:13:36;;;;;;;43.97;18.92;;;2.70;89.90;;;;;;5057704;28;20021;-66
2021/01/18 03:16:27;;;;;;;45.28;19.20;;;2.70;89.80;;;;;;5072408;28;20085;-66
2021/01/18 03:18:53;;;;;;;43.28;18.70;;;2.70;89.90;;;;;;5068599;28;20028;-66
2021/01/18 03:21:20;;;;;;;43.58;19.10;;;2.70;89.90;;;;;;5059815;28;20438;-66
2021/01/18 03:23:46;;;;;;;44.97;19.48;;;2.60;89.90;;;;;;5056166;28;20391;-66
2021/01/18 03:26:13;;;;;;;45.60;19.33;;;2.60;89.90;;;;;;5041823;28;20103;-66
2021/01/18 03:28:38;;;;;;;54.92;23.05;;;2.60;89.90;;;;;;5071048;28;20407;-66
2021/01/18 03:31:05;;;;;;;49.78;19.55;;;2.60;89.90;;;;;;5054225;28;20058;-66
2021/01/18 03:33:30;;;;;;;39.95;18.77;;;2.60;89.90;;;;;;5053978;28;20079;-66
2021/01/18 03:35:57;;;;;;;43.83;18.95;;;2.60;89.90;;;;;;5071296;28;20473;-66
2021/01/18 03:38:23;;;;;;;51.03;19.83;;;2.60;90.00;;;;;;5061603;28;20021;-66
2021/01/18 03:40:50;;;;;;;39.15;18.75;;;2.60;90.00;;;;;;5068041;28;20049;-66
2021/01/18 03:43:19;;;;;;;40.17;18.00;;;2.60;90.00;;;;;;5042118;28;20047;-66
2021/01/18 03:45:45;;;;;;;45.28;18.40;;;2.60;89.90;;;;;;5069096;28;20025;-66
2021/01/18 03:48:12;;;;;;;40.85;17.92;;;2.60;89.90;;;;;;5058404;28;20366;-65
2021/01/18 03:50:39;;;;;;;39.00;17.02;;;2.60;90.10;;;;;;5072900;28;20527;-66
2021/01/18 03:53:05;;;;;;;36.90;16.25;;;2.60;89.90;;;;;;5052896;28;20557;-66
2021/01/18 03:58:00;;;;;;;39.55;15.55;;;2.50;90.00;;;;;;5025481;28;20103;-66
2021/01/18 04:00:28;;;;;;;39.53;17.63;;;2.50;90.00;;;;;;5029533;28;20109;-66
2021/01/18 04:02:54;;;;;;;32.70;14.85;;;2.60;90.00;;;;;;5032679;28;20021;-66
2021/01/18 04:05:22;;;;;;;36.33;16.85;;;2.50;89.90;;;;;;5032617;28;20436;-66
2021/01/18 04:07:48;;;;;;;37.75;16.60;;;2.50;90.00;;;;;;5032398;28;20061;-65
2021/01/18 04:10:17;;;;;;;33.00;14.32;;;2.50;89.90;;;;;;5032762;28;20535;-66
2021/01/18 04:12:44;;;;;;;28.25;13.38;;;2.50;90.00;;;;;;5014958;28;20121;-66
2021/01/18 04:15:12;;;;;;;33.78;14.80;;;2.50;89.90;;;;;;5031630;28;20073;-65
2021/01/18 04:17:42;;;;;;;34.30;16.15;;;2.50;89.80;;;;;;5033522;28;20025;-66
2021/01/18 04:20:11;;;;;;;28.38;12.77;;;2.50;89.70;;;;;;5032477;28;20460;-65
2021/01/18 04:22:43;;;;;;;28.05;12.88;;;2.50;89.60;;;;;;5032889;28;20052;-66
2021/01/18 04:25:09;;;;;;;21.13;11.93;;;2.50;89.80;;;;;;5031187;28;20357;-65
2021/01/18 04:27:34;;;;;;;29.40;12.13;;;2.50;89.90;;;;;;5032800;28;20030;-65
2021/01/18 04:30:00;;;;;;;26.27;11.68;;;2.40;90.00;;;;;;5014335;28;20033;-65
2021/01/18 04:32:25;;;;;;;22.38;11.65;;;2.40;90.00;;;;;;5032633;28;20116;-65
2021/01/18 04:34:51;;;;;;;25.02;11.75;;;2.40;90.00;;;;;;5030790;28;20026;-65
2021/01/18 04:37:17;;;;;;;25.67;11.00;;;2.40;90.00;;;;;;5032312;28;20453;-65
2021/01/18 04:39:42;;;;;;;22.30;9.77;;;2.40;90.00;;;;;;5032305;28;20033;-65
2021/01/18 04:42:08;;;;;;;20.95;10.85;;;2.40;90.10;;;;;;5031659;28;20036;-65
2021/01/18 04:44:33;;;;;;;20.35;10.57;;;2.40;90.10;;;;;;5030628;28;20030;-65
2021/01/18 04:47:00;;;;;;;19.10;10.25;;;2.40;90.10;;;;;;5032030;28;20061;-65
2021/01/18 04:49:26;;;;;;;23.63;11.13;;;2.40;90.10;;;;;;5030951;28;20037;-65
2021/01/18 04:51:56;;;;;;;21.63;10.05;;;2.30;90.10;;;;;;5031403;28;20371;-65
2021/01/18 04:54:24;;;;;;;25.63;12.63;;;2.30;90.20;;;;;;5013211;28;20076;-65
2021/01/18 04:57:13;;;;;;;19.02;11.13;;;2.30;90.20;;;;;;5031560;28;20080;-65
2021/01/18 04:59:43;;;;;;;20.23;10.05;;;2.30;90.20;;;;;;5030961;28;20022;-65
2021/01/18 05:02:20;;;;;;;19.65;10.05;;;2.30;90.20;;;;;;5031153;28;20021;-65
2021/01/18 05:04:48;;;;;;;19.52;10.35;;;2.30;90.30;;;;;;5030431;28;20148;-65
2021/01/18 05:07:35;;;;;;;22.88;10.60;;;2.30;90.30;;;;;;5031107;28;20048;-65
2021/01/18 05:10:11;;;;;;;22.70;9.98;;;2.30;90.30;;;;;;5032236;28;20033;-65
2021/01/18 05:12:42;;;;;;;19.38;10.07;;;2.30;90.30;;;;;;5030753;28;20429;-65
2021/01/18 05:15:10;;;;;;;18.30;8.80;;;2.30;90.30;;;;;;5030896;28;20053;-65
2021/01/18 05:17:46;;;;;;;21.60;10.90;;;2.20;90.30;;;;;;5013537;28;20120;-65
2021/01/18 05:20:19;;;;;;;22.25;10.77;;;2.20;90.30;;;;;;5031577;28;20030;-65
2021/01/18 05:22:47;;;;;;;16.67;9.07;;;2.20;90.30;;;;;;5030890;28;20104;-65
2021/01/18 05:25:13;;;;;;;19.65;10.07;;;2.30;90.30;;;;;;5030912;28;20033;-65
2021/01/18 05:27:58;;;;;;;16.02;8.68;;;2.30;90.20;;;;;;5030450;28;20154;-65
2021/01/18 05:30:24;;;;;;;18.52;9.90;;;2.20;90.30;;;;;;5031725;28;20026;-65
2021/01/18 05:33:10;;;;;;;17.52;9.20;;;2.20;90.20;;;;;;5030601;28;20028;-65
2021/01/18 05:35:38;;;;;;;16.80;9.30;;;2.20;90.30;;;;;;5012938;28;20021;-65
2021/01/18 05:38:12;;;;;;;15.23;9.63;;;2.20;90.20;;;;;;5026669;28;20033;-65
2021/01/18 05:40:43;;;;;;;20.70;9.57;;;2.20;90.20;;;;;;5030951;28;20104;-65
2021/01/18 05:43:10;;;;;;;14.88;8.65;;;2.20;90.20;;;;;;5030881;28;20151;-65
2021/01/18 05:45:38;;;;;;;14.98;8.38;;;2.20;90.40;;;;;;5021683;28;20025;-65
2021/01/18 05:48:06;;;;;;;14.38;8.18;;;2.20;90.30;;;;;;5031320;28;20504;-65
2021/01/18 05:50:31;;;;;;;16.17;8.43;;;2.20;90.30;;;;;;5030174;28;20029;-65
2021/01/18 05:52:58;;;;;;;16.55;7.60;;;2.20;90.20;;;;;;5030582;28;20037;-65
2021/01/18 05:55:31;;;;;;;13.73;7.53;;;2.20;90.10;;;;;;5029840;28;20028;-65
2021/01/18 05:58:01;;;;;;;13.63;6.97;;;2.20;90.20;;;;;;5028083;28;20075;-65
2021/01/18 06:00:26;;;;;;;13.85;7.03;;;2.20;90.20;;;;;;5027220;28;20049;-65
2021/01/18 06:02:52;;;;;;;11.77;6.60;;;2.20;90.10;;;;;;5030484;28;20053;-65
2021/01/18 06:05:25;;;;;;;15.25;6.80;;;2.20;90.40;;;;;;5029658;28;20079;-64
2021/01/18 06:07:51;;;;;;;11.25;6.90;;;2.20;90.20;;;;;;5030586;28;20029;-65
2021/01/18 06:10:17;;;;;;;13.85;7.20;;;2.20;90.40;;;;;;5030158;28;20021;-64
2021/01/18 06:12:43;;;;;;;15.50;8.00;;;2.20;90.20;;;;;;5028494;28;20037;-63
2021/01/18 06:15:11;;;;;;;25.90;10.75;;;2.10;90.20;;;;;;5029451;28;20022;-63
2021/01/18 06:17:45;;;;;;;17.05;8.15;;;2.20;90.30;;;;;;5030789;28;20030;-63
2021/01/18 06:20:22;;;;;;;17.02;8.50;;;2.20;90.30;;;;;;5012427;28;20024;-64
2021/01/18 06:23:00;;;;;;;17.50;8.70;;;2.20;90.30;;;;;;5030852;28;20144;-63
2021/01/18 06:25:33;;;;;;;15.70;8.02;;;2.20;90.30;;;;;;5026189;28;20469;-63
2021/01/18 06:27:58;;;;;;;28.13;15.38;;;2.20;90.20;;;;;;5029911;28;20025;-63
2021/01/18 06:30:24;;;;;;;21.75;10.60;;;2.30;90.30;;;;;;5029585;28;22115;-64
2021/01/18 06:32:52;;;;;;;25.08;11.75;;;2.30;90.20;;;;;;5026649;28;20033;-63
2021/01/18 06:35:23;;;;;;;22.20;10.98;;;2.30;90.30;;;;;;5031281;28;20028;-63
2021/01/18 06:37:55;;;;;;;19.35;9.75;;;2.30;90.30;;;;;;5028303;28;20029;-64
2021/01/18 06:40:36;;;;;;;21.67;10.23;;;2.30;90.30;;;;;;5030036;28;20053;-64
2021/01/18 06:43:03;;;;;;;22.92;11.27;;;2.30;90.30;;;;;;5026134;28;20041;-64
2021/01/18 06:45:30;;;;;;;23.08;13.82;;;2.30;90.30;;;;;;5028030;28;20033;-65
2021/01/18 06:47:58;;;;;;;17.40;9.50;;;2.30;90.30;;;;;;5013420;28;20385;-63
2021/01/18 06:50:28;;;;;;;23.27;12.82;;;2.20;90.30;;;;;;5028641;28;20033;-64
2021/01/18 06:52:55;;;;;;;22.13;11.50;;;2.20;90.40;;;;;;5030157;28;20096;-64
2021/01/18 06:55:32;;;;;;;22.45;11.07;;;2.20;90.40;;;;;;5010385;28;20125;-65
2021/01/18 06:58:38;;;;;;;25.33;12.60;;;2.20;90.40;;;;;;5029968;28;20112;-65
2021/01/18 07:01:07;;;;;;;23.40;11.10;;;2.20;90.40;;;;;;5029077;28;20022;-64
2021/01/18 07:03:40;;;;;;;24.65;12.45;;;2.20;90.40;;;;;;5012530;28;20441;-64
2021/01/18 07:06:23;;;;;;;20.90;11.25;;;2.30;90.40;;;;;;5027430;28;20021;-65
2021/01/18 07:08:52;;;;;;;21.48;10.85;;;2.30;90.30;;;;;;5029577;28;20029;-64
2021/01/18 07:11:18;;;;;;;23.48;10.90;;;2.30;90.30;;;;;;5029902;28;20406;-64
2021/01/18 07:13:49;;;;;;;24.35;12.10;;;2.30;90.30;;;;;;5031266;28;20109;-64
2021/01/18 07:16:21;;;;;;;20.15;10.43;;;2.30;90.30;;;;;;5030302;28;20026;-65
2021/01/18 07:18:58;;;;;;;18.63;9.85;;;2.30;90.30;;;;;;5030084;28;20032;-65
2021/01/18 07:21:27;;;;;;;18.48;10.60;;;2.30;90.30;;;;;;4996216;28;20073;-65
2021/01/18 07:23:57;;;;;;;21.65;11.13;;;2.30;90.50;;;;;;5028114;28;20072;-65
2021/01/18 07:26:51;;;;;;;19.08;11.13;;;2.30;90.20;;;;;;5029293;28;20482;-65
2021/01/18 07:29:20;;;;;;;21.75;10.90;;;2.30;90.30;;;;;;5025028;28;20026;-64
2021/01/18 07:31:48;;;;;;;17.92;10.50;;;2.40;90.20;;;;;;5022120;28;20022;-65
2021/01/18 07:34:20;;;;;;;20.42;10.38;;;2.40;90.20;;;;;;5028160;28;20029;-65
2021/01/18 07:36:46;;;;;;;19.80;10.32;;;2.40;90.20;;;;;;5029294;28;20029;-64
2021/01/18 07:39:26;;;;;;;18.02;10.65;;;2.40;90.20;;;;;;5029370;28;20104;-65
2021/01/18 07:41:52;;;;;;;24.65;11.32;;;2.40;90.20;;;;;;5013892;28;20032;-65
2021/01/18 07:44:45;;;;;;;17.45;8.93;;;2.40;90.20;;;;;;5028146;28;20025;-65
2021/01/18 07:47:13;;;;;;;20.25;11.50;;;2.40;90.20;;;;;;5028626;28;20034;-65
2021/01/18 07:49:46;;;;;;;20.63;9.98;;;2.40;90.10;;;;;;5027531;28;20033;-65
2021/01/18 07:52:29;;;;;;;23.70;10.20;;;2.40;90.10;;;;;;5027904;28;20021;-65
2021/01/18 07:54:56;;;;;;;23.95;9.52;;;2.40;90.10;;;;;;5028648;28;20030;-64
2021/01/18 07:57:38;;;;;;;16.70;9.70;;;2.30;90.10;;;;;;5030921;28;20476;-65
2021/01/18 08:00:18;;;;;;;22.50;10.68;;;2.40;90.10;;;;;;5033044;28;20029;-65
2021/01/18 08:02:48;;;;;;;18.50;10.85;;;2.40;90.10;;;;;;5014298;28;20559;-65
2021/01/18 08:05:24;;;;;;;20.70;10.48;;;2.40;90.10;;;;;;5031743;28;20559;-65
2021/01/18 08:08:06;;;;;;;20.23;10.48;;;2.30;90.20;;;;;;5032658;28;20025;-65
2021/01/18 08:10:50;;;;;;;23.80;10.10;;;2.30;90.20;;;;;;5033031;28;20034;-66
2021/01/18 08:13:38;;;;;;;18.85;10.82;;;2.30;90.20;;;;;;5031769;28;20021;-66
2021/01/18 08:16:22;;;;;;;21.88;10.57;;;2.30;90.10;;;;;;5025492;28;20013;-66
2021/01/18 08:19:15;;;;;;;24.65;11.35;;;2.40;90.10;;;;;;5032724;28;20049;-66
2021/01/18 08:21:45;;;;;;;22.40;10.35;;;2.40;90.10;;;;;;5032452;28;20049;-65
2021/01/18 08:24:11;;;;;;;19.25;10.00;;;2.40;90.10;;;;;;5015896;28;20064;-66
2021/01/18 08:27:10;;;;;;;24.20;11.52;;;2.40;90.10;;;;;;5032468;28;20049;-66
2021/01/18 08:29:39;;;;;;;20.65;10.82;;;2.40;90.10;;;;;;5009431;28;20034;-67
2021/01/18 08:32:33;;;;;;;22.67;11.02;;;2.40;90.00;;;;;;5032021;28;20021;-67
2021/01/18 08:35:02;;;;;;;16.60;9.60;;;2.40;90.10;;;;;;5031679;28;20036;-67
2021/01/18 08:37:29;;;;;;;19.73;9.05;;;2.40;90.10;;;;;;5015199;28;20029;-66
2021/01/18 08:39:55;;;;;;;19.25;9.77;;;2.40;90.00;;;;;;5014841;28;20052;-67
2021/01/18 08:42:29;;;;;;;17.13;9.43;;;2.40;90.00;;;;;;5032341;28;20478;-66
2021/01/18 08:45:05;;;;;;;27.20;10.00;;;2.40;90.00;;;;;;5031840;28;20088;-65
2021/01/18 08:47:42;;;;;;;27.67;15.43;;;2.40;90.00;;;;;;5014598;28;20068;-65
2021/01/18 08:50:23;;;;;;;37.63;15.82;;;2.50;90.00;;;;;;5032530;28;20029;-65
2021/01/18 08:52:58;;;;;;;122.63;51.73;;;2.50;90.00;;;;;;5032180;28;20022;-65
2021/01/18 08:55:29;;;;;;;58.83;28.20;;;2.50;90.00;;;;;;5013470;28;20149;-66
2021/01/18 08:58:03;;;;;;;27.30;13.68;;;2.50;89.80;;;;;;5031718;28;20033;-66
2021/01/18 09:00:40;;;;;;;23.58;12.38;;;2.50;89.80;;;;;;5014128;28;20133;-66
2021/01/18 09:03:05;;;;;;;23.15;10.32;;;2.50;89.80;;;;;;5032435;28;20116;-67
2021/01/18 09:05:31;;;;;;;23.58;11.50;;;2.50;89.70;;;;;;5031379;28;20170;-66
2021/01/18 09:07:58;;;;;;;23.10;10.18;;;2.50;89.80;;;;;;5031072;28;20087;-65
2021/01/18 09:10:24;;;;;;;30.40;13.98;;;2.60;89.90;;;;;;5031448;28;20029;-66
2021/01/18 09:12:51;;;;;;;22.92;10.68;;;2.60;89.90;;;;;;5013430;28;20051;-66
2021/01/18 09:15:19;;;;;;;22.80;10.68;;;2.60;89.80;;;;;;5030975;28;20477;-66
2021/01/18 09:17:48;;;;;;;25.23;11.15;;;2.60;89.70;;;;;;5031597;28;20025;-66
2021/01/18 09:20:14;;;;;;;25.35;10.75;;;2.60;89.60;;;;;;5031244;28;20037;-66
2021/01/18 09:22:42;;;;;;;19.50;10.02;;;2.70;89.60;;;;;;5031445;28;20029;-67
2021/01/18 09:25:08;;;;;;;18.98;9.68;;;2.70;89.50;;;;;;5030370;28;20033;-66
2021/01/18 09:27:36;;;;;;;19.48;9.85;;;2.70;89.50;;;;;;5019990;28;20041;-66
2021/01/18 09:30:06;;;;;;;18.17;9.13;;;2.70;89.40;;;;;;5031447;28;20045;-65
2021/01/18 09:32:32;;;;;;;17.50;9.32;;;2.70;89.40;;;;;;5031088;28;20508;-67
2021/01/18 09:35:10;;;;;;;16.13;8.93;;;2.80;89.30;;;;;;5030902;28;20134;-67
2021/01/18 09:37:46;;;;;;;20.02;10.27;;;2.80;89.30;;;;;;5031052;28;20041;-66
2021/01/18 09:40:13;;;;;;;19.35;9.20;;;2.80;89.20;;;;;;5031186;28;20021;-66
2021/01/18 09:42:45;;;;;;;19.38;9.23;;;2.80;89.20;;;;;;5030221;28;20045;-66
2021/01/18 09:45:11;;;;;;;19.67;8.90;;;2.80;89.20;;;;;;5030512;28;20075;-66
2021/01/18 09:47:37;;;;;;;25.67;9.80;;;2.90;89.20;;;;;;5031160;28;20034;-67
2021/01/18 09:50:16;;;;;;;16.85;9.82;;;2.90;89.10;;;;;;5024796;28;20036;-66
2021/01/18 09:52:45;;;;;;;22.80;11.02;;;2.90;89.10;;;;;;5012182;28;20033;-66
2021/01/18 09:55:17;;;;;;;16.92;10.15;;;2.90;89.00;;;;;;5024507;28;20029;-65
2021/01/18 09:58:18;;;;;;;21.48;10.35;;;2.90;88.90;;;;;;5019646;23;20493;-66
2021/01/18 10:00:47;;;;;;;24.48;11.13;;;3.00;88.80;;;;;;5015199;28;20398;-66
2021/01/18 10:03:32;;;;;;;16.95;9.90;;;3.00;88.80;;;;;;5011230;28;20030;-66
2021/01/18 10:06:08;;;;;;;28.17;10.93;;;3.00;88.90;;;;;;5009843;28;20092;-67
2021/01/18 10:08:39;;;;;;;20.23;10.15;;;3.00;88.80;;;;;;5010766;28;20363;-67
2021/01/18 10:11:05;;;;;;;19.73;10.88;;;3.00;88.80;;;;;;5012831;28;20100;-67
2021/01/18 10:13:31;;;;;;;27.40;12.45;;;3.00;88.80;;;;;;5011740;28;20397;-66
2021/01/18 10:16:07;;;;;;;19.70;11.75;;;3.00;88.70;;;;;;5012076;28;20084;-67
2021/01/18 10:18:37;;;;;;;22.80;10.77;;;2.90;88.70;;;;;;5020403;28;20482;-66
2021/01/18 10:21:03;;;;;;;28.80;10.80;;;2.90;88.70;;;;;;4992727;28;20109;-66
2021/01/18 10:23:33;;;;;;;23.88;11.77;;;3.00;88.80;;;;;;5003274;28;20060;-66
2021/01/18 10:26:21;;;;;;;22.92;10.95;;;3.00;88.60;;;;;;5029338;28;20029;-66
2021/01/18 10:28:54;;;;;;;22.15;10.77;;;3.00;88.60;;;;;;5022003;28;20040;-66
2021/01/18 10:31:22;;;;;;;19.92;11.00;;;3.00;88.60;;;;;;5030208;28;20026;-66
2021/01/18 10:34:12;;;;;;;23.40;10.82;;;3.00;88.70;;;;;;5029288;28;20025;-67
2021/01/18 10:36:42;;;;;;;19.58;10.80;;;3.00;88.70;;;;;;5029326;28;20061;-66
2021/01/18 10:39:08;;;;;;;20.75;11.32;;;3.00;88.80;;;;;;4993004;28;20025;-67
2021/01/18 10:41:34;;;;;;;18.95;10.20;;;3.00;88.60;;;;;;5010107;28;20088;-67
2021/01/18 10:44:07;;;;;;;18.48;10.43;;;3.10;88.50;;;;;;5010954;28;20061;-67
2021/01/18 10:46:33;;;;;;;23.23;10.25;;;3.00;88.40;;;;;;5030225;28;20029;-67
2021/01/18 10:48:59;;;;;;;56.53;13.48;;;3.10;88.30;;;;;;4993030;28;20382;-66
2021/01/18 10:51:29;;;;;;;22.55;10.18;;;3.10;88.40;;;;;;5009853;28;20018;-66
2021/01/18 10:53:59;;;;;;;18.15;10.15;;;3.10;88.50;;;;;;5009513;28;20029;-67
2021/01/18 10:56:32;;;;;;;25.00;10.60;;;3.10;88.50;;;;;;5014542;28;20029;-67
2021/01/18 10:58:59;;;;;;;17.05;9.45;;;3.10;88.60;;;;;;4994311;28;20167;-66
2021/01/18 11:01:25;;;;;;;20.30;10.20;;;3.20;88.60;;;;;;5009574;28;20108;-67
2021/01/18 11:03:51;;;;;;;21.20;9.70;;;3.20;88.50;;;;;;5009912;28;20030;-67
2021/01/18 11:06:22;;;;;;;20.90;9.98;;;3.20;88.20;;;;;;4992290;28;20390;-66
2021/01/18 11:08:52;;;;;;;16.65;9.75;;;3.20;88.30;;;;;;5010528;28;20467;-66
2021/01/18 11:11:27;;;;;;;20.88;10.70;;;3.20;88.30;;;;;;4992098;28;20033;-66
2021/01/18 11:14:03;;;;;;;37.50;19.27;;;3.20;88.80;;;;;;5013917;28;20088;-66
2021/01/18 11:16:29;;;;;;;22.30;10.45;;;3.20;88.50;;;;;;5029764;28;20629;-65
2021/01/18 11:19:03;;;;;;;18.73;10.77;;;3.20;88.30;;;;;;5029357;28;20036;-65
2021/01/18 11:21:29;;;;;;;19.58;10.35;;;3.30;88.30;;;;;;5029887;28;20474;-66
2021/01/18 11:23:55;;;;;;;21.75;10.23;;;3.30;88.10;;;;;;5025216;28;20041;-67
2021/01/18 11:26:22;;;;;;;17.58;9.52;;;3.30;88.00;;;;;;5014608;28;20032;-67
2021/01/18 11:28:48;;;;;;;19.45;10.45;;;3.30;88.00;;;;;;5026063;28;20379;-66
2021/01/18 11:31:14;;;;;;;20.58;10.45;;;3.30;87.90;;;;;;5026405;28;20060;-65
2021/01/18 11:33:40;;;;;;;15.23;8.88;;;3.40;87.80;;;;;;5033316;28;20033;-66
2021/01/18 11:36:06;;;;;;;15.60;8.60;;;3.30;87.70;;;;;;5033027;28;20021;-66
2021/01/18 11:38:31;;;;;;;21.52;10.00;;;3.30;88.00;;;;;;5033324;28;20013;-67
2021/01/18 11:40:57;;;;;;;19.83;9.85;;;3.40;87.90;;;;;;5033264;28;20374;-65
2021/01/18 11:43:23;;;;;;;18.88;9.77;;;3.30;87.90;;;;;;5033482;28;20421;-65
2021/01/18 11:45:48;;;;;;;18.42;10.73;;;3.40;88.00;;;;;;5022137;28;20030;-65
2021/01/18 11:48:14;;;;;;;19.35;11.23;;;3.40;88.10;;;;;;5025278;28;20468;-67
2021/01/18 11:50:39;;;;;;;21.23;9.48;;;3.40;88.00;;;;;;5016198;28;20014;-65
2021/01/18 11:53:05;;;;;;;19.38;9.05;;;3.40;87.50;;;;;;5026129;28;20036;-66
2021/01/18 11:55:31;;;;;;;15.20;8.55;;;3.40;87.60;;;;;;5032246;28;20060;-66
2021/01/18 11:57:57;;;;;;;24.77;9.35;;;3.30;87.70;;;;;;5022257;28;20096;-67
2021/01/18 12:00:26;;;;;;;14.82;8.50;;;3.40;87.80;;;;;;5020005;28;20118;-67
2021/01/18 12:02:53;;;;;;;17.05;9.00;;;3.40;87.70;;;;;;5006774;28;20037;-66
2021/01/18 12:05:20;;;;;;;17.88;9.38;;;3.40;87.80;;;;;;5008674;28;20036;-66
2021/01/18 12:07:46;;;;;;;24.50;9.15;;;3.40;87.60;;;;;;5033058;28;20028;-66
2021/01/18 12:10:12;;;;;;;18.08;9.10;;;3.40;87.70;;;;;;5014830;28;20021;-65
2021/01/18 12:12:38;;;;;;;19.92;10.85;;;3.40;87.40;;;;;;5018729;28;20417;-66
2021/01/18 12:15:04;;;;;;;27.95;13.63;;;3.40;87.50;;;;;;5012428;28;20041;-66
2021/01/18 12:17:38;;;;;;;18.15;11.15;;;3.40;87.50;;;;;;5025005;28;20033;-65
2021/01/18 12:20:05;;;;;;;16.95;8.93;;;3.40;87.40;;;;;;5032614;28;20030;-66
2021/01/18 12:22:30;;;;;;;20.90;8.85;;;3.40;87.40;;;;;;5031911;28;20025;-65
2021/01/18 12:24:56;;;;;;;19.23;8.85;;;3.30;87.60;;;;;;5032184;28;20185;-65
2021/01/18 12:27:22;;;;;;;15.25;8.80;;;3.30;87.70;;;;;;5012510;28;20021;-66
2021/01/18 12:29:47;;;;;;;16.48;9.40;;;3.30;87.70;;;;;;5032609;28;20029;-67
2021/01/18 12:32:13;;;;;;;18.52;10.27;;;3.30;87.80;;;;;;5006493;28;20045;-66
2021/01/18 12:34:38;;;;;;;15.32;9.18;;;3.30;87.80;;;;;;5012151;28;20072;-67
2021/01/18 12:37:04;;;;;;;44.70;11.60;;;3.30;87.80;;;;;;5017800;28;20470;-65
2021/01/18 12:39:29;;;;;;;36.28;12.10;;;3.30;87.90;;;;;;5013101;28;20097;-68
2021/01/18 12:41:55;;;;;;;20.33;9.45;;;3.30;87.80;;;;;;5012334;28;20083;-66
2021/01/18 12:44:20;;;;;;;26.13;11.82;;;3.30;87.90;;;;;;5012792;28;20097;-66
2021/01/18 12:46:49;;;;;;;17.50;9.15;;;3.30;87.80;;;;;;5032759;28;20470;-67
2021/01/18 12:49:15;;;;;;;19.70;9.25;;;3.30;87.70;;;;;;5014694;28;20381;-66
2021/01/18 12:51:41;;;;;;;20.73;9.10;;;3.30;87.70;;;;;;5031768;28;20056;-66
2021/01/18 12:54:06;;;;;;;16.58;9.10;;;3.30;87.80;;;;;;5013885;28;20030;-67
2021/01/18 12:56:33;;;;;;;17.10;9.30;;;3.30;87.80;;;;;;5031282;28;20489;-68
2021/01/18 12:58:59;;;;;;;16.77;8.98;;;3.30;87.90;;;;;;5016120;28;20017;-65
2021/01/18 13:01:28;;;;;;;17.52;8.60;;;3.30;87.90;;;;;;5032223;28;20096;-66